createdAt,value
2022-10-08T00:00:14.345Z,24.05
2022-10-08T00:01:14.655Z,24.03
2022-10-08T00:02:14.558Z,24.03
2022-10-08T00:03:14.550Z,24.03
2022-10-08T00:04:14.314Z,24.02
2022-10-08T00:05:14.652Z,24.05
2022-10-08T00:06:14.231Z,24.00
2022-10-08T00:07:14.687Z,24.02
2022-10-08T00:08:14.211Z,24.03
2022-10-08T00:09:14.902Z,24.02
2022-10-08T00:10:14.199Z,24.00
2022-10-08T00:11:15.444Z,23.98
2022-10-08T00:12:14.235Z,24.02
2022-10-08T00:13:14.447Z,24.02
2022-10-08T00:14:14.130Z,24.02
2022-10-08T00:15:15.879Z,24.02
2022-10-08T00:16:14.198Z,23.98
2022-10-08T00:17:14.307Z,23.98
2022-10-08T00:18:14.077Z,24.00
2022-10-08T00:19:14.839Z,24.00
2022-10-08T00:20:14.053Z,23.98
2022-10-08T00:21:15.627Z,24.00
2022-10-08T00:22:14.030Z,24.00
2022-10-08T00:23:14.856Z,24.00
2022-10-08T00:24:13.985Z,23.98
2022-10-08T00:25:14.550Z,23.97
2022-10-08T00:26:13.972Z,23.95
2022-10-08T00:27:14.272Z,23.97
2022-10-08T00:28:14.046Z,23.97
2022-10-08T00:29:14.230Z,23.94
2022-10-08T00:30:13.975Z,23.95
2022-10-08T00:31:15.495Z,23.94
2022-10-08T00:32:13.881Z,23.94
2022-10-08T00:33:14.904Z,23.94
2022-10-08T00:34:13.852Z,23.97
2022-10-08T00:35:16.528Z,23.95
2022-10-08T00:36:13.821Z,23.95
2022-10-08T00:37:14.722Z,23.94
2022-10-08T00:38:13.841Z,23.95
2022-10-08T00:39:14.147Z,23.93
2022-10-08T00:40:13.791Z,23.94
2022-10-08T00:41:14.591Z,23.94
2022-10-08T00:42:13.750Z,23.93
2022-10-08T00:43:14.423Z,23.94
2022-10-08T00:44:13.716Z,23.93
2022-10-08T00:45:14.017Z,23.93
2022-10-08T00:46:13.751Z,23.93
2022-10-08T00:47:15.031Z,23.95
2022-10-08T00:48:13.669Z,23.94
2022-10-08T00:49:14.084Z,23.94
2022-10-08T00:50:13.632Z,23.91
2022-10-08T00:51:15.360Z,23.93
2022-10-08T00:52:13.598Z,23.91
2022-10-08T00:53:15.638Z,23.90
2022-10-08T00:54:13.575Z,23.93
2022-10-08T00:55:16.343Z,23.93
2022-10-08T00:56:13.551Z,23.91
2022-10-08T00:57:13.911Z,23.90
2022-10-08T00:58:13.528Z,23.90
2022-10-08T00:59:14.804Z,23.90
2022-10-08T01:00:14.496Z,23.90
2022-10-08T01:01:14.130Z,23.90
2022-10-08T01:02:13.689Z,23.90
2022-10-08T01:03:13.919Z,23.91
2022-10-08T01:04:13.486Z,23.88
2022-10-08T01:05:14.008Z,23.90
2022-10-08T01:06:14.156Z,23.90
2022-10-08T01:07:15.641Z,23.85
2022-10-08T01:08:13.442Z,23.91
2022-10-08T01:09:18.690Z,23.90
2022-10-08T01:10:14.354Z,23.88
2022-10-08T01:11:15.718Z,23.87
2022-10-08T01:12:13.542Z,23.90
2022-10-08T01:13:14.493Z,23.87
2022-10-08T01:14:13.343Z,23.87
2022-10-08T01:15:16.180Z,23.88
2022-10-08T01:16:13.567Z,23.85
2022-10-08T01:17:14.550Z,23.88
2022-10-08T01:18:13.326Z,23.87
2022-10-08T01:19:14.070Z,23.87
2022-10-08T01:20:13.264Z,23.85
2022-10-08T01:21:13.890Z,23.85
2022-10-08T01:22:13.366Z,23.84
2022-10-08T01:23:14.108Z,23.85
2022-10-08T01:24:13.203Z,23.87
2022-10-08T01:25:14.138Z,23.83
2022-10-08T01:26:13.192Z,23.85
2022-10-08T01:27:14.515Z,23.85
2022-10-08T01:28:13.333Z,23.85
2022-10-08T01:29:13.407Z,23.85
2022-10-08T01:30:13.310Z,23.85
2022-10-08T01:31:14.714Z,23.84
2022-10-08T01:32:13.817Z,23.87
2022-10-08T01:33:14.120Z,23.84
2022-10-08T01:34:13.800Z,23.84
2022-10-08T01:35:13.742Z,23.85
2022-10-08T01:36:13.009Z,23.84
2022-10-08T01:37:16.020Z,23.87
2022-10-08T01:38:13.008Z,23.83
2022-10-08T01:39:14.854Z,23.85
2022-10-08T01:40:13.100Z,23.84
2022-10-08T01:41:13.498Z,23.84
2022-10-08T01:42:13.027Z,23.83
2022-10-08T01:43:13.446Z,23.84
2022-10-08T01:44:13.548Z,23.84
2022-10-08T01:45:13.794Z,23.84
2022-10-08T01:46:13.051Z,23.83
2022-10-08T01:47:13.562Z,23.83
2022-10-08T01:48:12.913Z,23.85
2022-10-08T01:49:13.955Z,23.83
2022-10-08T01:50:12.892Z,23.83
2022-10-08T01:51:15.139Z,23.80
2022-10-08T01:52:12.979Z,23.83
2022-10-08T01:53:15.772Z,23.80
2022-10-08T01:54:12.802Z,23.79
2022-10-08T01:55:14.806Z,23.80
2022-10-08T01:56:12.708Z,23.80
2022-10-08T01:57:13.013Z,23.84
2022-10-08T01:58:12.706Z,23.80
2022-10-08T01:59:13.652Z,23.80
2022-10-08T02:00:12.675Z,23.79
2022-10-08T02:01:13.040Z,23.79
2022-10-08T02:02:12.711Z,23.80
2022-10-08T02:03:12.855Z,23.76
2022-10-08T02:04:12.622Z,23.80
2022-10-08T02:05:12.656Z,23.78
2022-10-08T02:06:12.569Z,23.76
2022-10-08T02:07:13.065Z,23.79
2022-10-08T02:08:12.551Z,23.79
2022-10-08T02:09:13.792Z,23.79
2022-10-08T02:10:12.595Z,23.78
2022-10-08T02:11:13.919Z,23.76
2022-10-08T02:12:12.480Z,23.75
2022-10-08T02:13:12.983Z,23.78
2022-10-08T02:14:12.460Z,23.78
2022-10-08T02:15:15.443Z,23.78
2022-10-08T02:16:12.491Z,23.76
2022-10-08T02:17:12.637Z,23.78
2022-10-08T02:18:12.418Z,23.75
2022-10-08T02:19:13.385Z,23.76
2022-10-08T02:20:12.429Z,23.76
2022-10-08T02:21:15.732Z,23.78
2022-10-08T02:22:12.418Z,23.73
2022-10-08T02:23:12.515Z,23.76
2022-10-08T02:24:12.346Z,23.75
2022-10-08T02:25:13.893Z,23.73
2022-10-08T02:26:12.337Z,23.76
2022-10-08T02:27:15.109Z,23.75
2022-10-08T02:28:12.433Z,23.76
2022-10-08T02:29:12.509Z,23.76
2022-10-08T02:30:12.391Z,23.75
2022-10-08T02:31:13.321Z,23.76
2022-10-08T02:32:12.256Z,23.75
2022-10-08T02:33:13.081Z,23.76
2022-10-08T02:34:12.258Z,23.75
2022-10-08T02:35:12.641Z,23.73
2022-10-08T02:36:12.138Z,23.73
2022-10-08T02:37:15.431Z,23.78
2022-10-08T02:38:12.126Z,23.75
2022-10-08T02:39:14.997Z,23.73
2022-10-08T02:40:12.147Z,23.73
2022-10-08T02:41:13.424Z,23.70
2022-10-08T02:42:12.062Z,23.75
2022-10-08T02:43:12.436Z,23.73
2022-10-08T02:44:12.045Z,23.72
2022-10-08T02:45:12.314Z,23.70
2022-10-08T02:46:12.110Z,23.73
2022-10-08T02:47:15.262Z,23.72
2022-10-08T02:48:11.974Z,23.73
2022-10-08T02:49:12.775Z,23.72
2022-10-08T02:50:11.952Z,23.72
2022-10-08T02:51:13.146Z,23.73
2022-10-08T02:52:11.956Z,23.70
2022-10-08T02:53:11.971Z,23.72
2022-10-08T02:54:11.912Z,23.72
2022-10-08T02:55:12.809Z,23.73
2022-10-08T02:56:11.880Z,23.70
2022-10-08T02:57:12.551Z,23.70
2022-10-08T02:58:12.060Z,23.72
2022-10-08T02:59:12.019Z,23.70
2022-10-08T03:00:11.828Z,23.69
2022-10-08T03:01:12.269Z,23.70
2022-10-08T03:02:11.870Z,23.70
2022-10-08T03:03:12.530Z,23.70
2022-10-08T03:04:11.806Z,23.70
2022-10-08T03:05:11.915Z,23.69
2022-10-08T03:06:11.718Z,23.69
2022-10-08T03:07:14.815Z,23.70
2022-10-08T03:08:11.695Z,23.69
2022-10-08T03:09:12.234Z,23.68
2022-10-08T03:10:11.699Z,23.66
2022-10-08T03:11:11.867Z,23.68
2022-10-08T03:12:11.656Z,23.69
2022-10-08T03:13:11.954Z,23.68
2022-10-08T03:14:11.607Z,23.69
2022-10-08T03:15:11.995Z,23.68
2022-10-08T03:16:11.661Z,23.66
2022-10-08T03:17:11.677Z,23.68
2022-10-08T03:18:11.554Z,23.69
2022-10-08T03:19:12.019Z,23.68
2022-10-08T03:20:11.525Z,23.68
2022-10-08T03:21:11.656Z,23.65
2022-10-08T03:22:11.552Z,23.65
2022-10-08T03:23:11.647Z,23.66
2022-10-08T03:24:11.484Z,23.66
2022-10-08T03:25:11.954Z,23.63
2022-10-08T03:26:11.450Z,23.68
2022-10-08T03:27:17.817Z,23.65
2022-10-08T03:28:12.519Z,23.66
2022-10-08T03:29:11.811Z,23.66
2022-10-08T03:30:11.395Z,23.65
2022-10-08T03:31:11.691Z,23.65
2022-10-08T03:32:11.367Z,23.63
2022-10-08T03:33:11.394Z,23.63
2022-10-08T03:34:11.371Z,23.65
2022-10-08T03:35:11.331Z,23.66
2022-10-08T03:36:11.316Z,23.66
2022-10-08T03:37:11.566Z,23.65
2022-10-08T03:38:11.274Z,23.65
2022-10-08T03:39:11.378Z,23.61
2022-10-08T03:40:11.292Z,23.63
2022-10-08T03:41:11.619Z,23.61
2022-10-08T03:42:11.290Z,23.63
2022-10-08T03:43:11.409Z,23.65
2022-10-08T03:44:11.201Z,23.65
2022-10-08T03:45:11.494Z,23.61
2022-10-08T03:46:11.237Z,23.66
2022-10-08T03:47:11.258Z,23.63
2022-10-08T03:48:11.132Z,23.61
2022-10-08T03:49:11.459Z,23.60
2022-10-08T03:50:11.121Z,23.61
2022-10-08T03:51:11.142Z,23.61
2022-10-08T03:52:11.132Z,23.61
2022-10-08T03:53:11.176Z,23.63
2022-10-08T03:54:11.052Z,23.61
2022-10-08T03:55:11.508Z,23.60
2022-10-08T03:56:11.024Z,23.61
2022-10-08T03:57:11.166Z,23.61
2022-10-08T03:58:11.044Z,23.61
2022-10-08T03:59:11.105Z,23.60
2022-10-08T04:00:10.995Z,23.57
2022-10-08T04:01:11.207Z,23.60
2022-10-08T04:02:11.007Z,23.60
2022-10-08T04:03:11.051Z,23.58
2022-10-08T04:04:11.109Z,23.57
2022-10-08T04:05:11.000Z,23.58
2022-10-08T04:06:10.886Z,23.58
2022-10-08T04:07:11.050Z,23.58
2022-10-08T04:08:10.903Z,23.60
2022-10-08T04:09:10.982Z,23.58
2022-10-08T04:10:10.881Z,23.58
2022-10-08T04:11:10.921Z,23.60
2022-10-08T04:12:10.798Z,23.55
2022-10-08T04:13:11.135Z,23.58
2022-10-08T04:14:10.775Z,23.57
2022-10-08T04:15:11.672Z,23.57
2022-10-08T04:16:10.864Z,23.57
2022-10-08T04:17:11.148Z,23.58
2022-10-08T04:18:10.738Z,23.55
2022-10-08T04:19:10.923Z,23.55
2022-10-08T04:20:10.700Z,23.58
2022-10-08T04:21:10.849Z,23.54
2022-10-08T04:22:10.702Z,23.54
2022-10-08T04:23:11.430Z,23.55
2022-10-08T04:24:10.637Z,23.57
2022-10-08T04:25:10.860Z,23.57
2022-10-08T04:26:10.641Z,23.57
2022-10-08T04:27:11.021Z,23.55
2022-10-08T04:28:10.700Z,23.55
2022-10-08T04:29:10.669Z,23.55
2022-10-08T04:30:10.678Z,23.57
2022-10-08T04:31:11.032Z,23.54
2022-10-08T04:32:10.596Z,23.54
2022-10-08T04:33:11.309Z,23.54
2022-10-08T04:34:10.544Z,23.54
2022-10-08T04:35:11.646Z,23.53
2022-10-08T04:36:10.469Z,23.55
2022-10-08T04:37:10.752Z,23.54
2022-10-08T04:38:10.473Z,23.54
2022-10-08T04:39:10.550Z,23.53
2022-10-08T04:40:10.474Z,23.51
2022-10-08T04:41:10.769Z,23.50
2022-10-08T04:42:10.393Z,23.53
2022-10-08T04:43:10.613Z,23.53
2022-10-08T04:44:10.361Z,23.53
2022-10-08T04:45:11.185Z,23.51
2022-10-08T04:46:10.583Z,23.51
2022-10-08T04:47:10.639Z,23.53
2022-10-08T04:48:10.337Z,23.51
2022-10-08T04:49:10.612Z,23.53
2022-10-08T04:50:10.294Z,23.53
2022-10-08T04:51:11.220Z,23.48
2022-10-08T04:52:10.302Z,23.51
2022-10-08T04:53:10.423Z,23.55
2022-10-08T04:54:10.235Z,23.50
2022-10-08T04:55:11.609Z,23.53
2022-10-08T04:56:10.222Z,23.50
2022-10-08T04:57:11.293Z,23.54
2022-10-08T04:58:10.218Z,23.51
2022-10-08T04:59:11.213Z,23.50
2022-10-08T05:00:18.793Z,23.50
2022-10-08T05:01:11.749Z,23.50
2022-10-08T05:02:10.202Z,23.50
2022-10-08T05:03:10.383Z,23.50
2022-10-08T05:04:10.173Z,23.50
2022-10-08T05:05:10.548Z,23.51
2022-10-08T05:06:10.199Z,23.50
2022-10-08T05:07:10.424Z,23.50
2022-10-08T05:08:10.190Z,23.50
2022-10-08T05:09:10.258Z,23.53
2022-10-08T05:10:10.566Z,23.50
2022-10-08T05:11:10.081Z,23.47
2022-10-08T05:12:10.175Z,23.48
2022-10-08T05:13:12.667Z,23.54
2022-10-08T05:14:09.946Z,23.47
2022-10-08T05:15:10.272Z,23.47
2022-10-08T05:16:10.063Z,23.48
2022-10-08T05:17:10.655Z,23.50
2022-10-08T05:18:09.895Z,23.47
2022-10-08T05:19:10.271Z,23.48
2022-10-08T05:20:09.936Z,23.47
2022-10-08T05:21:10.588Z,23.48
2022-10-08T05:22:09.895Z,23.46
2022-10-08T05:23:10.892Z,23.47
2022-10-08T05:24:09.820Z,23.47
2022-10-08T05:25:10.259Z,23.47
2022-10-08T05:26:09.781Z,23.46
2022-10-08T05:27:09.767Z,23.47
2022-10-08T05:28:09.880Z,23.47
2022-10-08T05:29:10.795Z,23.43
2022-10-08T05:30:09.843Z,23.47
2022-10-08T05:31:10.242Z,23.47
2022-10-08T05:32:09.689Z,23.50
2022-10-08T05:33:10.305Z,23.47
2022-10-08T05:34:09.829Z,23.47
2022-10-08T05:35:10.120Z,23.47
2022-10-08T05:36:09.653Z,23.46
2022-10-08T05:37:10.518Z,23.46
2022-10-08T05:38:09.618Z,23.47
2022-10-08T05:39:10.268Z,23.48
2022-10-08T05:40:10.080Z,23.43
2022-10-08T05:41:09.690Z,23.47
2022-10-08T05:42:09.554Z,23.47
2022-10-08T05:43:10.300Z,23.47
2022-10-08T05:44:09.565Z,23.46
2022-10-08T05:45:10.423Z,23.47
2022-10-08T05:46:09.611Z,23.46
2022-10-08T05:47:09.590Z,23.46
2022-10-08T05:48:09.466Z,23.46
2022-10-08T05:49:11.216Z,23.43
2022-10-08T05:50:09.459Z,23.43
2022-10-08T05:51:09.954Z,23.47
2022-10-08T05:52:09.504Z,23.46
2022-10-08T05:53:09.843Z,23.46
2022-10-08T05:54:09.384Z,23.47
2022-10-08T05:55:10.431Z,23.47
2022-10-08T05:56:09.696Z,23.46
2022-10-08T05:57:12.078Z,23.47
2022-10-08T05:58:09.383Z,23.46
2022-10-08T05:59:10.775Z,23.46
2022-10-08T06:00:09.374Z,23.48
2022-10-08T06:01:10.035Z,23.47
2022-10-08T06:02:09.269Z,23.47
2022-10-08T06:03:10.907Z,23.46
2022-10-08T06:04:09.454Z,23.46
2022-10-08T06:05:10.702Z,23.43
2022-10-08T06:06:09.214Z,23.46
2022-10-08T06:07:09.934Z,23.47
2022-10-08T06:08:09.195Z,23.46
2022-10-08T06:09:09.809Z,23.43
2022-10-08T06:10:09.217Z,23.47
2022-10-08T06:11:10.276Z,23.46
2022-10-08T06:12:09.131Z,23.46
2022-10-08T06:13:10.094Z,23.46
2022-10-08T06:14:09.122Z,23.46
2022-10-08T06:15:10.806Z,23.48
2022-10-08T06:16:09.340Z,23.48
2022-10-08T06:17:10.955Z,23.43
2022-10-08T06:18:09.062Z,23.50
2022-10-08T06:19:12.039Z,23.47
2022-10-08T06:20:09.057Z,23.48
2022-10-08T06:21:09.622Z,23.47
2022-10-08T06:22:09.021Z,23.48
2022-10-08T06:23:10.562Z,23.48
2022-10-08T06:24:08.961Z,23.46
2022-10-08T06:25:10.390Z,23.47
2022-10-08T06:26:08.939Z,23.48
2022-10-08T06:27:10.170Z,23.47
2022-10-08T06:28:08.990Z,23.48
2022-10-08T06:29:10.223Z,23.48
2022-10-08T06:30:08.914Z,23.50
2022-10-08T06:31:10.182Z,23.48
2022-10-08T06:32:08.855Z,23.51
2022-10-08T06:33:10.612Z,23.51
2022-10-08T06:34:08.902Z,23.53
2022-10-08T06:35:10.043Z,23.51
2022-10-08T06:36:08.797Z,23.51
2022-10-08T06:37:10.544Z,23.51
2022-10-08T06:38:09.065Z,23.51
2022-10-08T06:39:10.487Z,23.48
2022-10-08T06:40:08.845Z,23.53
2022-10-08T06:41:10.151Z,23.53
2022-10-08T06:42:08.712Z,23.50
2022-10-08T06:43:11.657Z,23.53
2022-10-08T06:44:08.705Z,23.51
2022-10-08T06:45:10.195Z,23.51
2022-10-08T06:46:08.919Z,23.53
2022-10-08T06:47:10.048Z,23.51
2022-10-08T06:48:08.660Z,23.50
2022-10-08T06:49:09.314Z,23.51
2022-10-08T06:50:08.633Z,23.51
2022-10-08T06:51:10.060Z,23.50
2022-10-08T06:52:08.607Z,23.51
2022-10-08T06:53:08.930Z,23.55
2022-10-08T06:54:08.868Z,23.54
2022-10-08T06:55:09.736Z,23.54
2022-10-08T06:56:08.533Z,23.53
2022-10-08T06:57:09.348Z,23.55
2022-10-08T06:58:08.552Z,23.51
2022-10-08T06:59:11.717Z,23.54
2022-10-08T07:00:08.528Z,23.54
2022-10-08T07:01:11.173Z,23.53
2022-10-08T07:02:08.511Z,23.53
2022-10-08T07:03:09.531Z,23.53
2022-10-08T07:04:08.462Z,23.54
2022-10-08T07:05:10.076Z,23.54
2022-10-08T07:06:08.554Z,23.55
2022-10-08T07:07:09.036Z,23.54
2022-10-08T07:08:08.394Z,23.57
2022-10-08T07:09:10.399Z,23.55
2022-10-08T07:10:08.417Z,23.55
2022-10-08T07:11:11.390Z,23.53
2022-10-08T07:12:08.318Z,23.53
2022-10-08T07:13:09.959Z,23.54
2022-10-08T07:14:08.335Z,23.55
2022-10-08T07:15:10.930Z,23.55
2022-10-08T07:16:08.394Z,23.55
2022-10-08T07:17:09.215Z,23.58
2022-10-08T07:18:08.343Z,23.60
2022-10-08T07:19:09.717Z,23.58
2022-10-08T07:20:08.334Z,23.61
2022-10-08T07:21:09.325Z,23.63
2022-10-08T07:22:08.363Z,23.60
2022-10-08T07:23:08.823Z,23.65
2022-10-08T07:24:08.227Z,23.61
2022-10-08T07:25:10.165Z,23.63
2022-10-08T07:26:08.214Z,23.58
2022-10-08T07:27:08.422Z,23.57
2022-10-08T07:28:08.261Z,23.60
2022-10-08T07:29:09.051Z,23.58
2022-10-08T07:30:08.303Z,23.58
2022-10-08T07:31:09.595Z,23.58
2022-10-08T07:32:08.187Z,23.57
2022-10-08T07:33:09.371Z,23.57
2022-10-08T07:34:08.048Z,23.58
2022-10-08T07:35:09.837Z,23.54
2022-10-08T07:36:08.114Z,23.55
2022-10-08T07:37:10.023Z,23.53
2022-10-08T07:38:08.114Z,23.53
2022-10-08T07:39:11.463Z,23.54
2022-10-08T07:40:08.097Z,23.54
2022-10-08T07:41:09.648Z,23.53
2022-10-08T07:42:08.062Z,23.51
2022-10-08T07:43:08.829Z,23.51
2022-10-08T07:44:07.831Z,23.50
2022-10-08T07:45:09.031Z,23.51
2022-10-08T07:46:08.255Z,23.50
2022-10-08T07:47:10.155Z,23.48
2022-10-08T07:48:08.048Z,23.51
2022-10-08T07:49:08.742Z,23.46
2022-10-08T07:50:08.711Z,23.47
2022-10-08T07:51:10.576Z,23.48
2022-10-08T07:52:08.711Z,23.47
2022-10-08T07:53:10.361Z,23.51
2022-10-08T07:54:08.268Z,23.48
2022-10-08T07:55:08.858Z,23.48
2022-10-08T07:56:07.823Z,23.48
2022-10-08T07:57:10.887Z,23.48
2022-10-08T07:58:07.742Z,23.46
2022-10-08T07:59:10.785Z,23.48
2022-10-08T08:00:07.962Z,23.47
2022-10-08T08:01:08.905Z,23.47
2022-10-08T08:02:07.735Z,23.51
2022-10-08T08:03:09.268Z,23.53
2022-10-08T08:04:07.621Z,23.53
2022-10-08T08:05:07.920Z,23.55
2022-10-08T08:06:07.945Z,23.55
2022-10-08T08:07:08.002Z,23.58
2022-10-08T08:08:07.683Z,23.58
2022-10-08T08:09:08.573Z,23.58
2022-10-08T08:10:07.575Z,23.58
2022-10-08T08:11:07.502Z,23.57
2022-10-08T08:12:07.824Z,23.58
2022-10-08T08:13:07.458Z,23.58
2022-10-08T08:14:07.424Z,23.60
2022-10-08T08:15:07.421Z,23.60
2022-10-08T08:16:07.452Z,23.65
2022-10-08T08:17:07.388Z,23.68
2022-10-08T08:18:07.925Z,23.66
2022-10-08T08:19:07.355Z,23.68
2022-10-08T08:20:07.374Z,23.66
2022-10-08T08:21:07.631Z,23.70
2022-10-08T08:22:07.566Z,23.68
2022-10-08T08:23:07.726Z,23.69
2022-10-08T08:24:07.386Z,23.70
2022-10-08T08:25:07.287Z,23.70
2022-10-08T08:26:07.269Z,23.68
2022-10-08T08:27:07.297Z,23.72
2022-10-08T08:28:07.478Z,23.70
2022-10-08T08:29:07.263Z,23.70
2022-10-08T08:30:07.403Z,23.69
2022-10-08T08:31:07.267Z,23.73
2022-10-08T08:32:07.247Z,23.72
2022-10-08T08:33:07.209Z,23.70
2022-10-08T08:34:07.215Z,23.70
2022-10-08T08:35:07.229Z,23.73
2022-10-08T08:36:08.086Z,23.72
2022-10-08T08:37:07.188Z,23.72
2022-10-08T08:38:07.103Z,23.72
2022-10-08T08:39:07.092Z,23.72
2022-10-08T08:40:07.169Z,23.72
2022-10-08T08:41:11.848Z,23.70
2022-10-08T08:42:08.910Z,23.70
2022-10-08T08:43:07.029Z,23.72
2022-10-08T08:44:07.150Z,23.73
2022-10-08T08:45:07.119Z,23.72
2022-10-08T08:46:07.096Z,23.73
2022-10-08T08:47:06.967Z,23.70
2022-10-08T08:48:07.290Z,23.70
2022-10-08T08:49:07.194Z,23.69
2022-10-08T08:50:06.941Z,23.73
2022-10-08T08:51:07.221Z,23.73
2022-10-08T08:52:06.935Z,23.73
2022-10-08T08:53:06.888Z,23.73
2022-10-08T08:54:06.958Z,23.73
2022-10-08T08:55:06.866Z,23.73
2022-10-08T08:56:06.859Z,23.73
2022-10-08T08:57:06.900Z,23.76
2022-10-08T08:58:10.757Z,23.76
2022-10-08T08:59:06.827Z,23.78
2022-10-08T09:00:06.908Z,23.78
2022-10-08T09:01:06.805Z,23.76
2022-10-08T09:02:06.778Z,23.76
2022-10-08T09:03:06.753Z,23.76
2022-10-08T09:04:06.798Z,23.75
2022-10-08T09:05:06.763Z,23.78
2022-10-08T09:06:06.801Z,23.79
2022-10-08T09:07:06.694Z,23.76
2022-10-08T09:08:07.006Z,23.76
2022-10-08T09:09:07.036Z,23.78
2022-10-08T09:10:06.693Z,23.78
2022-10-08T09:11:06.635Z,23.75
2022-10-08T09:12:06.842Z,23.78
2022-10-08T09:13:06.606Z,23.75
2022-10-08T09:14:06.604Z,23.79
2022-10-08T09:15:06.585Z,23.78
2022-10-08T09:16:06.628Z,23.78
2022-10-08T09:17:06.607Z,23.78
2022-10-08T09:18:06.690Z,23.79
2022-10-08T09:19:06.533Z,23.79
2022-10-08T09:20:06.511Z,23.80
2022-10-08T09:21:06.499Z,23.80
2022-10-08T09:22:06.539Z,23.80
2022-10-08T09:23:06.481Z,23.79
2022-10-08T09:24:06.587Z,23.83
2022-10-08T09:25:06.719Z,23.83
2022-10-08T09:26:06.444Z,23.83
2022-10-08T09:27:06.460Z,23.87
2022-10-08T09:28:06.516Z,23.84
2022-10-08T09:29:06.377Z,23.84
2022-10-08T09:30:06.534Z,23.87
2022-10-08T09:31:08.908Z,23.88
2022-10-08T09:32:06.350Z,23.87
2022-10-08T09:33:06.327Z,23.91
2022-10-08T09:34:06.487Z,23.87
2022-10-08T09:35:06.298Z,23.91
2022-10-08T09:36:06.394Z,23.90
2022-10-08T09:37:06.272Z,23.93
2022-10-08T09:38:06.446Z,23.93
2022-10-08T09:39:06.252Z,23.95
2022-10-08T09:40:06.286Z,23.94
2022-10-08T09:41:06.220Z,23.95
2022-10-08T09:42:06.285Z,23.98
2022-10-08T09:43:06.196Z,23.97
2022-10-08T09:44:06.175Z,23.94
2022-10-08T09:45:06.169Z,23.95
2022-10-08T09:46:06.203Z,23.95
2022-10-08T09:47:06.138Z,23.93
2022-10-08T09:48:06.451Z,23.93
2022-10-08T09:49:06.103Z,23.94
2022-10-08T09:50:06.101Z,23.95
2022-10-08T09:51:06.067Z,23.94
2022-10-08T09:52:06.097Z,23.93
2022-10-08T09:53:06.040Z,23.93
2022-10-08T09:54:06.211Z,23.93
2022-10-08T09:55:06.016Z,23.93
2022-10-08T09:56:06.008Z,23.93
2022-10-08T09:57:05.989Z,23.91
2022-10-08T09:58:06.010Z,23.91
2022-10-08T09:59:06.740Z,23.94
2022-10-08T10:00:06.055Z,23.91
2022-10-08T10:01:06.007Z,23.93
2022-10-08T10:02:05.917Z,23.93
2022-10-08T10:03:05.898Z,23.91
2022-10-08T10:04:05.996Z,23.90
2022-10-08T10:05:05.902Z,23.91
2022-10-08T10:06:06.020Z,23.90
2022-10-08T10:07:05.858Z,23.91
2022-10-08T10:08:05.855Z,23.94
2022-10-08T10:09:05.819Z,23.91
2022-10-08T10:10:05.873Z,23.91
2022-10-08T10:11:05.786Z,23.91
2022-10-08T10:12:05.773Z,23.91
2022-10-08T10:13:05.772Z,23.94
2022-10-08T10:14:05.759Z,23.91
2022-10-08T10:15:05.757Z,23.90
2022-10-08T10:16:05.766Z,23.91
2022-10-08T10:17:05.806Z,23.91
2022-10-08T10:18:05.917Z,23.88
2022-10-08T10:19:05.701Z,23.88
2022-10-08T10:20:05.706Z,23.85
2022-10-08T10:21:05.677Z,23.84
2022-10-08T10:22:05.840Z,23.85
2022-10-08T10:23:05.634Z,23.83
2022-10-08T10:24:05.689Z,23.80
2022-10-08T10:25:05.601Z,23.79
2022-10-08T10:26:06.799Z,23.75
2022-10-08T10:27:05.573Z,23.78
2022-10-08T10:28:05.798Z,23.78
2022-10-08T10:29:05.540Z,23.75
2022-10-08T10:30:05.707Z,23.75
2022-10-08T10:31:05.576Z,23.72
2022-10-08T10:32:05.561Z,23.69
2022-10-08T10:33:05.493Z,23.66
2022-10-08T10:34:05.742Z,23.69
2022-10-08T10:35:05.458Z,23.66
2022-10-08T10:36:05.545Z,23.65
2022-10-08T10:37:05.428Z,23.61
2022-10-08T10:38:05.455Z,23.61
2022-10-08T10:39:05.409Z,23.60
2022-10-08T10:40:05.579Z,23.60
2022-10-08T10:41:05.394Z,23.60
2022-10-08T10:42:05.507Z,23.58
2022-10-08T10:43:05.344Z,23.60
2022-10-08T10:44:05.336Z,23.60
2022-10-08T10:45:05.340Z,23.61
2022-10-08T10:46:05.408Z,23.61
2022-10-08T10:47:05.297Z,23.61
2022-10-08T10:48:05.426Z,23.63
2022-10-08T10:49:05.257Z,23.60
2022-10-08T10:50:05.252Z,23.61
2022-10-08T10:51:05.263Z,23.60
2022-10-08T10:52:05.277Z,23.60
2022-10-08T10:53:05.214Z,23.61
2022-10-08T10:54:06.291Z,23.65
2022-10-08T10:55:06.038Z,23.60
2022-10-08T10:56:05.187Z,23.60
2022-10-08T10:57:05.215Z,23.58
2022-10-08T10:58:05.187Z,23.63
2022-10-08T10:59:05.195Z,23.63
2022-10-08T11:00:05.207Z,23.61
2022-10-08T11:01:05.132Z,23.58
2022-10-08T11:02:05.095Z,23.60
2022-10-08T11:03:05.155Z,23.61
2022-10-08T11:04:05.772Z,23.60
2022-10-08T11:05:05.088Z,23.60
2022-10-08T11:06:05.263Z,23.63
2022-10-08T11:07:05.030Z,23.63
2022-10-08T11:08:05.142Z,23.63
2022-10-08T11:09:05.001Z,23.63
2022-10-08T11:10:05.059Z,23.61
2022-10-08T11:11:04.958Z,23.61
2022-10-08T11:12:05.039Z,23.61
2022-10-08T11:13:04.938Z,23.61
2022-10-08T11:14:05.166Z,23.61
2022-10-08T11:15:04.963Z,23.63
2022-10-08T11:16:04.960Z,23.61
2022-10-08T11:17:04.880Z,23.60
2022-10-08T11:18:05.019Z,23.65
2022-10-08T11:19:05.092Z,23.61
2022-10-08T11:20:04.890Z,23.60
2022-10-08T11:21:04.864Z,23.61
2022-10-08T11:22:04.835Z,23.61
2022-10-08T11:23:04.790Z,23.61
2022-10-08T11:24:05.057Z,23.61
2022-10-08T11:25:04.795Z,23.60
2022-10-08T11:26:21.901Z,23.61
2022-10-08T11:27:05.768Z,23.60
2022-10-08T11:28:04.765Z,23.61
2022-10-08T11:29:04.709Z,23.58
2022-10-08T11:30:04.813Z,23.61
2022-10-08T11:31:04.744Z,23.60
2022-10-08T11:32:04.688Z,23.60
2022-10-08T11:33:04.710Z,23.57
2022-10-08T11:34:04.648Z,23.60
2022-10-08T11:35:04.634Z,23.58
2022-10-08T11:36:04.833Z,23.60
2022-10-08T11:37:04.609Z,23.61
2022-10-08T11:38:04.596Z,23.58
2022-10-08T11:39:04.596Z,23.57
2022-10-08T11:40:04.561Z,23.60
2022-10-08T11:41:04.600Z,23.58
2022-10-08T11:42:04.848Z,23.58
2022-10-08T11:43:04.510Z,23.61
2022-10-08T11:44:04.508Z,23.58
2022-10-08T11:45:04.749Z,23.57
2022-10-08T11:46:04.511Z,23.57
2022-10-08T11:47:05.420Z,23.57
2022-10-08T11:48:09.720Z,23.58
2022-10-08T11:49:05.430Z,23.57
2022-10-08T11:50:04.446Z,23.57
2022-10-08T11:51:04.525Z,23.60
2022-10-08T11:52:04.437Z,23.57
2022-10-08T11:53:04.387Z,23.58
2022-10-08T11:54:04.506Z,23.60
2022-10-08T11:55:04.345Z,23.58
2022-10-08T11:56:04.338Z,23.58
2022-10-08T11:57:04.344Z,23.57
2022-10-08T11:58:08.687Z,23.58
2022-10-08T11:59:04.306Z,23.57
2022-10-08T12:00:08.322Z,23.58
2022-10-08T12:01:04.256Z,23.58
2022-10-08T12:02:04.487Z,23.60
2022-10-08T12:03:04.350Z,23.60
2022-10-08T12:04:04.225Z,23.60
2022-10-08T12:05:04.204Z,23.58
2022-10-08T12:06:04.340Z,23.58
2022-10-08T12:07:04.206Z,23.58
2022-10-08T12:08:04.177Z,23.58
2022-10-08T12:09:04.217Z,23.58
2022-10-08T12:10:04.160Z,23.58
2022-10-08T12:11:04.158Z,23.57
2022-10-08T12:12:04.264Z,23.57
2022-10-08T12:13:04.113Z,23.57
2022-10-08T12:14:04.094Z,23.60
2022-10-08T12:15:04.106Z,23.58
2022-10-08T12:16:04.145Z,23.60
2022-10-08T12:17:04.045Z,23.55
2022-10-08T12:18:04.217Z,23.57
2022-10-08T12:19:04.002Z,23.60
2022-10-08T12:20:04.002Z,23.57
2022-10-08T12:21:04.016Z,23.57
2022-10-08T12:22:03.960Z,23.57
2022-10-08T12:23:03.971Z,23.58
2022-10-08T12:24:04.507Z,23.58
2022-10-08T12:25:03.931Z,23.58
2022-10-08T12:26:03.911Z,23.57
2022-10-08T12:27:03.944Z,23.57
2022-10-08T12:28:03.935Z,23.58
2022-10-08T12:29:03.881Z,23.57
2022-10-08T12:30:04.058Z,23.58
2022-10-08T12:31:03.893Z,23.57
2022-10-08T12:32:03.856Z,23.58
2022-10-08T12:33:03.846Z,23.57
2022-10-08T12:34:03.860Z,23.60
2022-10-08T12:35:03.787Z,23.58
2022-10-08T12:36:03.942Z,23.58
2022-10-08T12:37:03.805Z,23.58
2022-10-08T12:38:03.746Z,23.57
2022-10-08T12:39:03.766Z,23.58
2022-10-08T12:40:03.716Z,23.58
2022-10-08T12:41:03.711Z,23.58
2022-10-08T12:42:03.784Z,23.58
2022-10-08T12:43:03.674Z,23.57
2022-10-08T12:44:03.662Z,23.55
2022-10-08T12:45:03.687Z,23.58
2022-10-08T12:46:03.635Z,23.57
2022-10-08T12:47:03.678Z,23.55
2022-10-08T12:48:03.995Z,23.57
2022-10-08T12:49:03.591Z,23.57
2022-10-08T12:50:03.567Z,23.55
2022-10-08T12:51:03.731Z,23.60
2022-10-08T12:52:03.543Z,23.57